sensor_id;sensor_type;location;lat;lon;timestamp;pressure;altitude;pressure_sealevel;temperature;humidity
33845;BME280;20145;43.118;25.694;2023-02-12T00:01:30;100516.75;;;1.43;59.70
33845;BME280;20145;43.118;25.694;2023-02-12T00:03:56;100560.16;;;1.67;59.24
33845;BME280;20145;43.118;25.694;2023-02-12T00:06:23;100541.19;;;1.60;59.90
33845;BME280;20145;43.118;25.694;2023-02-12T00:08:51;100561.28;;;1.73;59.21
33845;BME280;20145;43.118;25.694;2023-02-12T00:11:19;100539.41;;;1.58;59.38
33845;BME280;20145;43.118;25.694;2023-02-12T00:13:46;100560.31;;;1.71;58.88
33845;BME280;20145;43.118;25.694;2023-02-12T00:16:14;100560.28;;;1.70;58.29
33845;BME280;20145;43.118;25.694;2023-02-12T00:18:40;100530.72;;;1.52;59.66
33845;BME280;20145;43.118;25.694;2023-02-12T00:21:06;100547.97;;;1.60;58.77
33845;BME280;20145;43.118;25.694;2023-02-12T00:23:36;100551.13;;;1.54;59.50
33845;BME280;20145;43.118;25.694;2023-02-12T00:26:11;100550.78;;;1.46;59.15
33845;BME280;20145;43.118;25.694;2023-02-12T00:28:37;100548.19;;;1.45;59.58
33845;BME280;20145;43.118;25.694;2023-02-12T00:31:10;100553.81;;;1.38;59.28
33845;BME280;20145;43.118;25.694;2023-02-12T00:33:36;100551.94;;;1.33;59.10
33845;BME280;20145;43.118;25.694;2023-02-12T00:36:02;100555.47;;;1.18;58.94
33845;BME280;20145;43.118;25.694;2023-02-12T00:38:28;100556.91;;;1.11;59.72
33845;BME280;20145;43.118;25.694;2023-02-12T00:40:54;100559.09;;;1.03;60.35
33845;BME280;20145;43.118;25.694;2023-02-12T00:43:20;100560.13;;;0.89;60.69
33845;BME280;20145;43.118;25.694;2023-02-12T00:45:47;100564.13;;;0.84;60.78
33845;BME280;20145;43.118;25.694;2023-02-12T00:48:14;100551.53;;;0.68;62.07
33845;BME280;20145;43.118;25.694;2023-02-12T00:50:39;100546.63;;;0.53;61.78
33845;BME280;20145;43.118;25.694;2023-02-12T00:53:06;100557.78;;;0.38;62.67
33845;BME280;20145;43.118;25.694;2023-02-12T00:55:34;100554.38;;;0.38;62.05
33845;BME280;20145;43.118;25.694;2023-02-12T00:58:01;100558.34;;;0.33;62.35
33845;BME280;20145;43.118;25.694;2023-02-12T01:00:26;100550.59;;;0.30;63.37
33845;BME280;20145;43.118;25.694;2023-02-12T01:02:52;100544.44;;;0.25;63.07
33845;BME280;20145;43.118;25.694;2023-02-12T01:05:18;100541.03;;;0.24;63.02
33845;BME280;20145;43.118;25.694;2023-02-12T01:07:49;100541.16;;;0.27;62.56
33845;BME280;20145;43.118;25.694;2023-02-12T01:10:15;100541.25;;;0.29;63.35
33845;BME280;20145;43.118;25.694;2023-02-12T01:12:41;100535.59;;;0.34;62.54
33845;BME280;20145;43.118;25.694;2023-02-12T01:15:07;100532.41;;;0.38;63.57
33845;BME280;20145;43.118;25.694;2023-02-12T01:17:37;100530.44;;;0.33;63.30
33845;BME280;20145;43.118;25.694;2023-02-12T01:20:07;100536.84;;;0.42;64.74
33845;BME280;20145;43.118;25.694;2023-02-12T01:22:35;100536.03;;;0.61;61.66
33845;BME280;20145;43.118;25.694;2023-02-12T01:25:02;100532.22;;;0.71;61.71
33845;BME280;20145;43.118;25.694;2023-02-12T01:27:28;100531.03;;;0.82;62.84
33845;BME280;20145;43.118;25.694;2023-02-12T01:29:54;100532.19;;;0.89;60.94
33845;BME280;20145;43.118;25.694;2023-02-12T01:32:20;100532.09;;;1.05;60.54
33845;BME280;20145;43.118;25.694;2023-02-12T01:34:46;100520.56;;;1.14;61.59
33845;BME280;20145;43.118;25.694;2023-02-12T01:37:12;100521.97;;;1.26;61.63
33845;BME280;20145;43.118;25.694;2023-02-12T01:39:37;100521.22;;;1.29;61.00
33845;BME280;20145;43.118;25.694;2023-02-12T01:42:04;100508.72;;;1.33;60.76
33845;BME280;20145;43.118;25.694;2023-02-12T01:44:33;100508.84;;;1.37;60.90
33845;BME280;20145;43.118;25.694;2023-02-12T01:47:05;100506.03;;;1.50;61.71
33845;BME280;20145;43.118;25.694;2023-02-12T01:49:38;100506.09;;;1.51;60.62
33845;BME280;20145;43.118;25.694;2023-02-12T01:52:12;100502.56;;;1.48;61.03
33845;BME280;20145;43.118;25.694;2023-02-12T01:54:39;100489.59;;;1.42;60.74
33845;BME280;20145;43.118;25.694;2023-02-12T01:57:07;100493.78;;;1.41;61.32
33845;BME280;20145;43.118;25.694;2023-02-12T01:59:40;100496.28;;;1.40;60.48
33845;BME280;20145;43.118;25.694;2023-02-12T02:02:08;100488.69;;;1.41;60.97
33845;BME280;20145;43.118;25.694;2023-02-12T02:04:45;100500.00;;;1.48;61.26
33845;BME280;20145;43.118;25.694;2023-02-12T02:07:13;100495.59;;;1.44;61.50
33845;BME280;20145;43.118;25.694;2023-02-12T02:09:39;100495.41;;;1.39;61.85
33845;BME280;20145;43.118;25.694;2023-02-12T02:12:07;100496.81;;;1.32;61.82
33845;BME280;20145;43.118;25.694;2023-02-12T02:14:56;100491.84;;;1.36;62.25
33845;BME280;20145;43.118;25.694;2023-02-12T02:26:03;100490.44;;;1.42;62.08
33845;BME280;20145;43.118;25.694;2023-02-12T02:34:18;100479.25;;;1.79;62.00
33845;BME280;20145;43.118;25.694;2023-02-12T02:37:17;100465.66;;;1.78;61.62
33845;BME280;20145;43.118;25.694;2023-02-12T02:39:57;100457.28;;;1.81;62.46
33845;BME280;20145;43.118;25.694;2023-02-12T02:42:41;100473.09;;;1.95;60.46
33845;BME280;20145;43.118;25.694;2023-02-12T02:45:19;100463.25;;;2.03;59.24
33845;BME280;20145;43.118;25.694;2023-02-12T02:48:05;100466.81;;;2.08;59.23
33845;BME280;20145;43.118;25.694;2023-02-12T02:50:37;100472.03;;;2.11;59.85
33845;BME280;20145;43.118;25.694;2023-02-12T02:53:09;100473.19;;;2.19;58.62
33845;BME280;20145;43.118;25.694;2023-02-12T02:55:44;100472.84;;;2.32;58.26
33845;BME280;20145;43.118;25.694;2023-02-12T02:58:35;100472.97;;;2.35;58.63
33845;BME280;20145;43.118;25.694;2023-02-12T03:01:12;100462.13;;;2.41;57.45
33845;BME280;20145;43.118;25.694;2023-02-12T03:03:57;100477.69;;;2.47;57.96
33845;BME280;20145;43.118;25.694;2023-02-12T03:08:57;100465.16;;;2.53;56.97
33845;BME280;20145;43.118;25.694;2023-02-12T03:11:30;100474.59;;;2.56;56.83
33845;BME280;20145;43.118;25.694;2023-02-12T03:14:10;100470.47;;;2.59;57.06
33845;BME280;20145;43.118;25.694;2023-02-12T03:16:53;100477.25;;;2.59;56.15
33845;BME280;20145;43.118;25.694;2023-02-12T03:19:24;100482.34;;;2.59;56.77
33845;BME280;20145;43.118;25.694;2023-02-12T03:22:09;100473.00;;;2.58;56.46
33845;BME280;20145;43.118;25.694;2023-02-12T03:24:40;100473.75;;;2.55;56.76
33845;BME280;20145;43.118;25.694;2023-02-12T03:27:18;100471.13;;;2.54;56.29
33845;BME280;20145;43.118;25.694;2023-02-12T03:29:46;100467.31;;;2.42;55.65
33845;BME280;20145;43.118;25.694;2023-02-12T03:34:54;100470.59;;;2.40;57.05
33845;BME280;20145;43.118;25.694;2023-02-12T03:40:21;100473.59;;;2.30;58.29
33845;BME280;20145;43.118;25.694;2023-02-12T03:48:16;100466.47;;;2.43;57.99
33845;BME280;20145;43.118;25.694;2023-02-12T03:53:18;100466.38;;;2.40;58.66
33845;BME280;20145;43.118;25.694;2023-02-12T03:55:46;100472.31;;;2.41;58.76
33845;BME280;20145;43.118;25.694;2023-02-12T03:58:17;100454.50;;;2.41;57.65
33845;BME280;20145;43.118;25.694;2023-02-12T04:00:45;100468.25;;;2.44;57.82
33845;BME280;20145;43.118;25.694;2023-02-12T04:03:11;100467.38;;;2.44;58.90
33845;BME280;20145;43.118;25.694;2023-02-12T04:05:37;100484.59;;;2.51;59.04
33845;BME280;20145;43.118;25.694;2023-02-12T04:08:06;100493.72;;;2.44;59.13
33845;BME280;20145;43.118;25.694;2023-02-12T04:10:44;100491.09;;;2.43;58.91
33845;BME280;20145;43.118;25.694;2023-02-12T04:13:25;100487.91;;;2.49;58.92
33845;BME280;20145;43.118;25.694;2023-02-12T04:18:41;100491.38;;;2.51;59.95
33845;BME280;20145;43.118;25.694;2023-02-12T04:21:16;100486.94;;;2.45;60.41
33845;BME280;20145;43.118;25.694;2023-02-12T04:29:54;100496.81;;;2.60;60.73
33845;BME280;20145;43.118;25.694;2023-02-12T04:32:29;100501.13;;;2.61;60.29
33845;BME280;20145;43.118;25.694;2023-02-12T04:35:07;100506.56;;;2.70;60.17
33845;BME280;20145;43.118;25.694;2023-02-12T04:37:40;100516.19;;;2.77;60.79
33845;BME280;20145;43.118;25.694;2023-02-12T04:40:11;100517.25;;;2.84;60.04
33845;BME280;20145;43.118;25.694;2023-02-12T04:42:41;100520.88;;;2.90;60.31
33845;BME280;20145;43.118;25.694;2023-02-12T04:45:12;100510.59;;;2.87;60.06
33845;BME280;20145;43.118;25.694;2023-02-12T04:47:40;100527.56;;;2.87;60.52
33845;BME280;20145;43.118;25.694;2023-02-12T04:50:07;100532.66;;;2.87;60.36
33845;BME280;20145;43.118;25.694;2023-02-12T04:52:33;100523.97;;;2.82;61.67
33845;BME280;20145;43.118;25.694;2023-02-12T04:55:01;100532.59;;;2.85;61.17
33845;BME280;20145;43.118;25.694;2023-02-12T04:57:26;100527.56;;;2.87;60.59
33845;BME280;20145;43.118;25.694;2023-02-12T04:59:52;100533.53;;;2.87;60.95
33845;BME280;20145;43.118;25.694;2023-02-12T05:02:18;100537.31;;;2.75;61.09
33845;BME280;20145;43.118;25.694;2023-02-12T05:04:44;100547.63;;;2.78;61.23
33845;BME280;20145;43.118;25.694;2023-02-12T05:07:11;100547.13;;;2.88;61.15
33845;BME280;20145;43.118;25.694;2023-02-12T05:09:37;100548.13;;;2.92;61.37
33845;BME280;20145;43.118;25.694;2023-02-12T05:12:03;100566.31;;;3.01;60.65
33845;BME280;20145;43.118;25.694;2023-02-12T05:14:28;100569.06;;;3.07;61.25
33845;BME280;20145;43.118;25.694;2023-02-12T05:16:59;100574.34;;;3.11;60.46
33845;BME280;20145;43.118;25.694;2023-02-12T05:19:27;100572.78;;;2.93;60.65
33845;BME280;20145;43.118;25.694;2023-02-12T05:21:53;100582.00;;;2.89;61.30
33845;BME280;20145;43.118;25.694;2023-02-12T05:24:18;100575.69;;;3.02;61.01
33845;BME280;20145;43.118;25.694;2023-02-12T05:26:44;100578.13;;;2.99;60.94
33845;BME280;20145;43.118;25.694;2023-02-12T05:29:09;100575.69;;;3.02;61.72
33845;BME280;20145;43.118;25.694;2023-02-12T05:31:35;100563.34;;;2.90;60.27
33845;BME280;20145;43.118;25.694;2023-02-12T05:34:01;100584.25;;;3.04;60.49
33845;BME280;20145;43.118;25.694;2023-02-12T05:36:26;100590.41;;;3.09;60.22
33845;BME280;20145;43.118;25.694;2023-02-12T05:38:56;100602.56;;;3.16;60.22
33845;BME280;20145;43.118;25.694;2023-02-12T05:41:23;100602.09;;;3.04;60.99
33845;BME280;20145;43.118;25.694;2023-02-12T05:43:50;100613.47;;;3.12;61.04
33845;BME280;20145;43.118;25.694;2023-02-12T05:46:17;100612.81;;;3.18;60.52
33845;BME280;20145;43.118;25.694;2023-02-12T05:48:44;100616.19;;;3.17;60.94
33845;BME280;20145;43.118;25.694;2023-02-12T05:51:15;100619.63;;;3.19;60.92
33845;BME280;20145;43.118;25.694;2023-02-12T05:53:41;100624.88;;;3.22;61.55
33845;BME280;20145;43.118;25.694;2023-02-12T05:58:44;100633.50;;;3.25;62.02
33845;BME280;20145;43.118;25.694;2023-02-12T06:01:21;100638.78;;;3.30;62.15
33845;BME280;20145;43.118;25.694;2023-02-12T06:03:47;100643.88;;;3.30;62.80
33845;BME280;20145;43.118;25.694;2023-02-12T06:06:12;100641.44;;;3.33;62.32
33845;BME280;20145;43.118;25.694;2023-02-12T06:08:38;100633.63;;;3.28;61.61
33845;BME280;20145;43.118;25.694;2023-02-12T06:11:09;100646.59;;;3.34;61.66
33845;BME280;20145;43.118;25.694;2023-02-12T06:13:35;100642.59;;;3.41;62.02
33845;BME280;20145;43.118;25.694;2023-02-12T06:16:01;100642.66;;;3.43;62.04
33845;BME280;20145;43.118;25.694;2023-02-12T06:18:27;100643.88;;;3.52;61.52
33845;BME280;20145;43.118;25.694;2023-02-12T06:20:52;100655.16;;;3.59;62.44
33845;BME280;20145;43.118;25.694;2023-02-12T06:23:25;100650.44;;;3.70;61.10
33845;BME280;20145;43.118;25.694;2023-02-12T06:25:55;100654.81;;;3.74;59.76
33845;BME280;20145;43.118;25.694;2023-02-12T06:28:21;100656.97;;;3.86;60.05
33845;BME280;20145;43.118;25.694;2023-02-12T06:30:46;100661.06;;;3.82;59.01
33845;BME280;20145;43.118;25.694;2023-02-12T06:33:12;100656.63;;;3.76;58.98
33845;BME280;20145;43.118;25.694;2023-02-12T06:35:38;100655.56;;;3.71;59.57
33845;BME280;20145;43.118;25.694;2023-02-12T06:38:04;100664.03;;;3.69;59.33
33845;BME280;20145;43.118;25.694;2023-02-12T06:40:30;100664.38;;;3.55;59.86
33845;BME280;20145;43.118;25.694;2023-02-12T06:42:55;100668.84;;;3.61;59.91
33845;BME280;20145;43.118;25.694;2023-02-12T06:45:21;100668.13;;;3.65;59.94
33845;BME280;20145;43.118;25.694;2023-02-12T06:47:47;100669.44;;;3.78;59.57
33845;BME280;20145;43.118;25.694;2023-02-12T06:50:13;100676.84;;;3.94;60.80
33845;BME280;20145;43.118;25.694;2023-02-12T06:52:39;100675.31;;;3.99;59.03
33845;BME280;20145;43.118;25.694;2023-02-12T06:55:05;100675.97;;;3.94;59.60
33845;BME280;20145;43.118;25.694;2023-02-12T06:57:30;100677.59;;;4.16;59.03
33845;BME280;20145;43.118;25.694;2023-02-12T06:59:56;100680.53;;;4.28;59.47
33845;BME280;20145;43.118;25.694;2023-02-12T07:02:21;100685.81;;;4.33;58.91
33845;BME280;20145;43.118;25.694;2023-02-12T07:04:47;100693.63;;;4.37;58.85
33845;BME280;20145;43.118;25.694;2023-02-12T07:07:13;100678.81;;;4.53;58.57
33845;BME280;20145;43.118;25.694;2023-02-12T07:09:38;100678.66;;;4.48;57.89
33845;BME280;20145;43.118;25.694;2023-02-12T07:12:04;100689.59;;;4.71;58.03
33845;BME280;20145;43.118;25.694;2023-02-12T07:14:30;100698.22;;;4.73;57.27
33845;BME280;20145;43.118;25.694;2023-02-12T07:16:55;100682.38;;;4.58;58.42
33845;BME280;20145;43.118;25.694;2023-02-12T07:19:21;100689.22;;;4.08;58.93
33845;BME280;20145;43.118;25.694;2023-02-12T07:21:47;100690.34;;;3.92;59.81
33845;BME280;20145;43.118;25.694;2023-02-12T07:24:14;100687.72;;;3.90;59.29
33845;BME280;20145;43.118;25.694;2023-02-12T07:26:40;100676.47;;;3.85;59.83
33845;BME280;20145;43.118;25.694;2023-02-12T07:29:06;100687.25;;;4.00;59.74
33845;BME280;20145;43.118;25.694;2023-02-12T07:31:33;100679.53;;;3.75;60.17
33845;BME280;20145;43.118;25.694;2023-02-12T07:33:59;100679.69;;;3.79;60.23
33845;BME280;20145;43.118;25.694;2023-02-12T07:36:27;100684.94;;;3.83;59.92
33845;BME280;20145;43.118;25.694;2023-02-12T07:38:54;100682.38;;;3.83;60.37
33845;BME280;20145;43.118;25.694;2023-02-12T07:41:23;100683.53;;;3.68;60.40
33845;BME280;20145;43.118;25.694;2023-02-12T07:43:56;100687.13;;;3.73;60.51
33845;BME280;20145;43.118;25.694;2023-02-12T07:46:25;100683.94;;;4.03;60.30
33845;BME280;20145;43.118;25.694;2023-02-12T07:48:54;100694.72;;;4.20;59.82
33845;BME280;20145;43.118;25.694;2023-02-12T07:51:20;100690.84;;;4.31;59.16
33845;BME280;20145;43.118;25.694;2023-02-12T07:53:47;100695.50;;;4.43;58.14
33845;BME280;20145;43.118;25.694;2023-02-12T07:56:20;100696.69;;;4.53;59.21
33845;BME280;20145;43.118;25.694;2023-02-12T07:58:50;100702.47;;;4.47;58.05
33845;BME280;20145;43.118;25.694;2023-02-12T08:01:27;100703.88;;;4.63;59.17
33845;BME280;20145;43.118;25.694;2023-02-12T08:03:57;100694.41;;;4.87;58.59
33845;BME280;20145;43.118;25.694;2023-02-12T08:06:26;100706.56;;;4.95;57.65
33845;BME280;20145;43.118;25.694;2023-02-12T08:08:57;100703.41;;;5.02;57.61
33845;BME280;20145;43.118;25.694;2023-02-12T08:11:24;100711.94;;;5.02;57.90
33845;BME280;20145;43.118;25.694;2023-02-12T08:13:51;100706.16;;;5.09;57.49
33845;BME280;20145;43.118;25.694;2023-02-12T08:16:19;100701.22;;;5.14;57.57
33845;BME280;20145;43.118;25.694;2023-02-12T08:18:45;100697.00;;;5.16;57.75
33845;BME280;20145;43.118;25.694;2023-02-12T08:21:20;100713.72;;;5.05;58.47
33845;BME280;20145;43.118;25.694;2023-02-12T08:23:46;100707.06;;;5.10;58.33
33845;BME280;20145;43.118;25.694;2023-02-12T08:26:21;100705.59;;;5.18;58.40
33845;BME280;20145;43.118;25.694;2023-02-12T08:28:56;100710.94;;;5.26;58.17
33845;BME280;20145;43.118;25.694;2023-02-12T08:31:24;100707.06;;;5.39;58.16
33845;BME280;20145;43.118;25.694;2023-02-12T08:33:51;100710.66;;;5.45;57.62
33845;BME280;20145;43.118;25.694;2023-02-12T08:36:20;100721.84;;;5.20;59.21
33845;BME280;20145;43.118;25.694;2023-02-12T08:38:47;100721.75;;;5.17;60.37
33845;BME280;20145;43.118;25.694;2023-02-12T08:41:16;100732.81;;;4.89;62.10
33845;BME280;20145;43.118;25.694;2023-02-12T08:43:42;100744.19;;;4.72;62.89
33845;BME280;20145;43.118;25.694;2023-02-12T08:46:13;100746.22;;;4.56;64.84
33845;BME280;20145;43.118;25.694;2023-02-12T08:48:40;100739.97;;;4.74;63.19
33845;BME280;20145;43.118;25.694;2023-02-12T08:51:17;100749.84;;;4.88;62.75
33845;BME280;20145;43.118;25.694;2023-02-12T08:53:45;100742.22;;;5.17;61.81
33845;BME280;20145;43.118;25.694;2023-02-12T08:56:13;100742.06;;;5.12;61.39
33845;BME280;20145;43.118;25.694;2023-02-12T08:58:39;100749.53;;;5.05;62.22
33845;BME280;20145;43.118;25.694;2023-02-12T09:01:09;100744.59;;;5.11;61.99
33845;BME280;20145;43.118;25.694;2023-02-12T09:03:35;100757.31;;;5.08;62.06
33845;BME280;20145;43.118;25.694;2023-02-12T09:06:06;100752.78;;;5.01;62.50
33845;BME280;20145;43.118;25.694;2023-02-12T09:08:32;100765.22;;;4.90;62.35
33845;BME280;20145;43.118;25.694;2023-02-12T09:10:58;100760.66;;;4.80;62.09
33845;BME280;20145;43.118;25.694;2023-02-12T09:13:24;100771.78;;;5.07;61.44
33845;BME280;20145;43.118;25.694;2023-02-12T09:15:50;100761.78;;;5.15;61.16
33845;BME280;20145;43.118;25.694;2023-02-12T09:18:15;100773.94;;;5.49;60.36
33845;BME280;20145;43.118;25.694;2023-02-12T09:20:43;100771.22;;;5.73;60.62
33845;BME280;20145;43.118;25.694;2023-02-12T09:23:11;100780.22;;;5.88;59.32
33845;BME280;20145;43.118;25.694;2023-02-12T09:25:41;100778.50;;;6.17;58.53
33845;BME280;20145;43.118;25.694;2023-02-12T09:28:08;100775.81;;;6.44;58.08
33845;BME280;20145;43.118;25.694;2023-02-12T09:30:36;100747.78;;;6.50;56.40
33845;BME280;20145;43.118;25.694;2023-02-12T09:33:03;100764.66;;;6.74;55.48
33845;BME280;20145;43.118;25.694;2023-02-12T09:35:29;100779.31;;;6.46;56.88
33845;BME280;20145;43.118;25.694;2023-02-12T09:37:55;100783.66;;;6.48;56.55
33845;BME280;20145;43.118;25.694;2023-02-12T09:40:32;100800.00;;;6.54;56.71
33845;BME280;20145;43.118;25.694;2023-02-12T09:45:29;100800.78;;;6.19;56.90
33845;BME280;20145;43.118;25.694;2023-02-12T09:52:54;100800.00;;;6.22;58.73
33845;BME280;20145;43.118;25.694;2023-02-12T09:55:26;100814.63;;;5.69;60.71
33845;BME280;20145;43.118;25.694;2023-02-12T09:57:53;100825.94;;;5.21;62.84
33845;BME280;20145;43.118;25.694;2023-02-12T10:00:29;100822.19;;;5.11;63.17
33845;BME280;20145;43.118;25.694;2023-02-12T10:03:00;100821.38;;;5.12;63.16
33845;BME280;20145;43.118;25.694;2023-02-12T10:05:32;100826.41;;;5.35;62.70
33845;BME280;20145;43.118;25.694;2023-02-12T10:11:00;100832.69;;;5.19;62.79
33845;BME280;20145;43.118;25.694;2023-02-12T10:16:42;100832.47;;;5.66;61.54
33845;BME280;20145;43.118;25.694;2023-02-12T10:25:29;100828.66;;;6.39;59.46
33845;BME280;20145;43.118;25.694;2023-02-12T10:28:07;100831.06;;;6.33;60.40
33845;BME280;20145;43.118;25.694;2023-02-12T10:30:41;100835.41;;;6.35;60.10
33845;BME280;20145;43.118;25.694;2023-02-12T10:33:47;100839.19;;;6.81;59.26
33845;BME280;20145;43.118;25.694;2023-02-12T10:41:40;100837.75;;;7.24;56.79
33845;BME280;20145;43.118;25.694;2023-02-12T10:44:10;100835.41;;;7.00;57.34
33845;BME280;20145;43.118;25.694;2023-02-12T10:46:36;100834.53;;;7.33;56.73
33845;BME280;20145;43.118;25.694;2023-02-12T10:49:02;100837.03;;;7.66;56.22
33845;BME280;20145;43.118;25.694;2023-02-12T10:51:38;100838.53;;;7.96;55.67
33845;BME280;20145;43.118;25.694;2023-02-12T10:57:26;100828.03;;;8.26;53.79
33845;BME280;20145;43.118;25.694;2023-02-12T10:59:55;100828.22;;;7.94;51.99
33845;BME280;20145;43.118;25.694;2023-02-12T11:02:29;100825.38;;;8.21;50.66
33845;BME280;20145;43.118;25.694;2023-02-12T11:04:56;100826.44;;;7.90;51.57
33845;BME280;20145;43.118;25.694;2023-02-12T11:07:24;100819.94;;;7.68;52.43
33845;BME280;20145;43.118;25.694;2023-02-12T11:09:52;100815.38;;;7.94;53.10
33845;BME280;20145;43.118;25.694;2023-02-12T11:14:59;100823.84;;;7.90;52.11
33845;BME280;20145;43.118;25.694;2023-02-12T11:17:36;100817.72;;;8.24;50.64
33845;BME280;20145;43.118;25.694;2023-02-12T11:22:57;100827.81;;;7.76;51.69
33845;BME280;20145;43.118;25.694;2023-02-12T11:25:27;100820.75;;;7.66;52.23
33845;BME280;20145;43.118;25.694;2023-02-12T11:30:31;100817.44;;;7.71;52.45
33845;BME280;20145;43.118;25.694;2023-02-12T11:33:18;100835.91;;;7.20;54.20
33845;BME280;20145;43.118;25.694;2023-02-12T11:35:55;100830.84;;;7.23;53.57
33845;BME280;20145;43.118;25.694;2023-02-12T11:38:30;100836.09;;;7.28;53.93
33845;BME280;20145;43.118;25.694;2023-02-12T11:41:00;100839.13;;;7.46;53.44
33845;BME280;20145;43.118;25.694;2023-02-12T11:43:28;100835.00;;;7.53;52.57
33845;BME280;20145;43.118;25.694;2023-02-12T11:45:56;100836.41;;;7.40;52.86
33845;BME280;20145;43.118;25.694;2023-02-12T11:48:28;100839.00;;;7.40;53.10
33845;BME280;20145;43.118;25.694;2023-02-12T11:50:57;100838.88;;;7.35;52.53
33845;BME280;20145;43.118;25.694;2023-02-12T11:53:29;100835.25;;;7.27;53.35
33845;BME280;20145;43.118;25.694;2023-02-12T11:55:59;100837.41;;;7.47;52.95
33845;BME280;20145;43.118;25.694;2023-02-12T11:58:26;100839.59;;;7.31;53.22
33845;BME280;20145;43.118;25.694;2023-02-12T12:06:05;100825.03;;;7.29;52.81
33845;BME280;20145;43.118;25.694;2023-02-12T12:08:43;100833.16;;;7.47;53.63
33845;BME280;20145;43.118;25.694;2023-02-12T12:11:17;100821.41;;;7.96;52.50
33845;BME280;20145;43.118;25.694;2023-02-12T12:14:30;100832.66;;;8.41;51.91
33845;BME280;20145;43.118;25.694;2023-02-12T12:16:42;100837.69;;;7.97;52.80
33845;BME280;20145;43.118;25.694;2023-02-12T12:19:41;100831.75;;;7.99;53.07
33845;BME280;20145;43.118;25.694;2023-02-12T12:22:42;100851.75;;;7.73;53.86
33845;BME280;20145;43.118;25.694;2023-02-12T12:25:12;100857.28;;;7.54;54.02
33845;BME280;20145;43.118;25.694;2023-02-12T12:28:10;100843.00;;;7.29;55.36
33845;BME280;20145;43.118;25.694;2023-02-12T12:57:05;100875.19;;;5.94;58.10
33845;BME280;20145;43.118;25.694;2023-02-12T13:08:39;100893.16;;;5.95;59.09
33845;BME280;20145;43.118;25.694;2023-02-12T13:11:21;100898.59;;;5.79;59.94
33845;BME280;20145;43.118;25.694;2023-02-12T13:14:00;100900.53;;;5.86;59.81
33845;BME280;20145;43.118;25.694;2023-02-12T13:16:46;100901.44;;;5.88;60.21
33845;BME280;20145;43.118;25.694;2023-02-12T13:25:06;100923.09;;;6.25;59.28
33845;BME280;20145;43.118;25.694;2023-02-12T13:27:41;100915.50;;;6.28;63.03
33845;BME280;20145;43.118;25.694;2023-02-12T13:32:42;100921.31;;;6.22;65.00
33845;BME280;20145;43.118;25.694;2023-02-12T13:35:22;100927.53;;;6.31;64.79
33845;BME280;20145;43.118;25.694;2023-02-12T13:37:52;100929.69;;;6.17;64.67
33845;BME280;20145;43.118;25.694;2023-02-12T13:40:25;100941.03;;;5.98;65.32
33845;BME280;20145;43.118;25.694;2023-02-12T13:45:38;100949.03;;;5.81;66.15
33845;BME280;20145;43.118;25.694;2023-02-12T13:59:00;100980.16;;;5.43;68.26
33845;BME280;20145;43.118;25.694;2023-02-12T14:01:43;100976.56;;;5.37;68.41
33845;BME280;20145;43.118;25.694;2023-02-12T14:04:26;100985.81;;;5.32;68.87
33845;BME280;20145;43.118;25.694;2023-02-12T14:12:00;100999.50;;;5.34;68.70
33845;BME280;20145;43.118;25.694;2023-02-12T14:14:36;101007.19;;;5.34;69.20
33845;BME280;20145;43.118;25.694;2023-02-12T14:20:31;101017.13;;;5.51;69.06
33845;BME280;20145;43.118;25.694;2023-02-12T14:23:27;101017.34;;;5.57;68.67
33845;BME280;20145;43.118;25.694;2023-02-12T14:26:05;101023.25;;;5.54;68.21
33845;BME280;20145;43.118;25.694;2023-02-12T14:34:27;101039.97;;;5.45;68.10
33845;BME280;20145;43.118;25.694;2023-02-12T14:36:45;101034.75;;;5.42;68.34
33845;BME280;20145;43.118;25.694;2023-02-12T14:41:50;101042.69;;;5.49;69.09
33845;BME280;20145;43.118;25.694;2023-02-12T14:46:53;101037.13;;;5.37;69.21
33845;BME280;20145;43.118;25.694;2023-02-12T14:49:43;101048.03;;;5.31;67.91
33845;BME280;20145;43.118;25.694;2023-02-12T14:52:13;101051.94;;;5.46;68.10
33845;BME280;20145;43.118;25.694;2023-02-12T15:02:45;101075.16;;;5.04;68.43
33845;BME280;20145;43.118;25.694;2023-02-12T15:05:18;101066.81;;;5.08;67.79
33845;BME280;20145;43.118;25.694;2023-02-12T15:07:54;101069.50;;;5.12;67.37
33845;BME280;20145;43.118;25.694;2023-02-12T15:10:22;101068.34;;;5.04;67.63
33845;BME280;20145;43.118;25.694;2023-02-12T15:23:41;101078.19;;;5.16;68.70
33845;BME280;20145;43.118;25.694;2023-02-12T15:26:29;101087.31;;;5.09;68.52
33845;BME280;20145;43.118;25.694;2023-02-12T15:28:56;101080.88;;;4.97;68.03
33845;BME280;20145;43.118;25.694;2023-02-12T15:31:26;101089.88;;;4.87;68.35
33845;BME280;20145;43.118;25.694;2023-02-12T15:33:58;101101.13;;;4.90;68.76
33845;BME280;20145;43.118;25.694;2023-02-12T15:36:27;101101.34;;;4.97;67.55
33845;BME280;20145;43.118;25.694;2023-02-12T15:38:59;101110.94;;;5.02;66.87
33845;BME280;20145;43.118;25.694;2023-02-12T15:41:43;101113.72;;;5.08;66.53
33845;BME280;20145;43.118;25.694;2023-02-12T15:44:30;101112.84;;;5.08;66.84
33845;BME280;20145;43.118;25.694;2023-02-12T15:46:57;101121.63;;;5.14;67.11
33845;BME280;20145;43.118;25.694;2023-02-12T15:49:35;101125.75;;;5.11;68.33
33845;BME280;20145;43.118;25.694;2023-02-12T15:52:19;101137.50;;;5.06;69.11
33845;BME280;20145;43.118;25.694;2023-02-12T15:54:46;101132.03;;;4.97;68.82
33845;BME280;20145;43.118;25.694;2023-02-12T15:57:20;101137.91;;;4.94;69.48
33845;BME280;20145;43.118;25.694;2023-02-12T15:59:55;101138.41;;;4.85;70.27
33845;BME280;20145;43.118;25.694;2023-02-12T16:02:26;101145.97;;;4.82;70.21
33845;BME280;20145;43.118;25.694;2023-02-12T16:04:54;101154.28;;;4.77;70.78
33845;BME280;20145;43.118;25.694;2023-02-12T16:07:20;101156.44;;;4.67;70.46